createdAt,value
2018-08-31T00:01:02.118Z,16.40
2018-08-31T00:04:52.050Z,15.67
2018-08-31T00:07:34.134Z,16.10
2018-08-31T00:12:45.242Z,16.00
2018-08-31T00:15:14.734Z,15.07
2018-08-31T00:17:44.948Z,16.40
2018-08-31T00:20:14.986Z,14.77
2018-08-31T00:22:54.374Z,16.20
2018-08-31T00:26:14.783Z,17.10
2018-08-31T00:29:51.362Z,14.17
2018-08-31T00:33:02.434Z,14.37
2018-08-31T00:35:41.798Z,15.40
2018-08-31T00:38:59.450Z,15.83
2018-08-31T00:43:53.328Z,16.23
2018-08-31T00:46:22.800Z,15.30
2018-08-31T00:48:52.649Z,16.33
2018-08-31T00:51:22.473Z,16.53
2018-08-31T00:53:56.675Z,18.00
2018-08-31T00:56:26.406Z,17.50
2018-08-31T00:58:57.929Z,18.57
2018-08-31T01:01:29.594Z,17.27
2018-08-31T01:03:59.137Z,17.57
2018-08-31T01:06:28.662Z,17.67
2018-08-31T01:09:04.538Z,17.10
2018-08-31T01:11:34.002Z,17.50
2018-08-31T01:14:09.950Z,19.17
2018-08-31T01:16:40.542Z,18.20
2018-08-31T01:19:10.382Z,17.20
2018-08-31T01:21:48.573Z,17.40
2018-08-31T01:24:22.150Z,17.67
2018-08-31T01:26:51.982Z,15.83
2018-08-31T01:29:22.678Z,16.27
2018-08-31T01:31:52.386Z,16.57
2018-08-31T01:34:23.122Z,15.90
2018-08-31T01:36:53.014Z,15.40
2018-08-31T01:39:22.817Z,16.73
2018-08-31T01:42:00.825Z,15.43
2018-08-31T01:44:30.614Z,15.37
2018-08-31T01:47:06.013Z,15.93
2018-08-31T01:49:38.163Z,16.13
2018-08-31T01:52:30.987Z,15.00
2018-08-31T01:55:04.042Z,15.50
2018-08-31T01:57:34.665Z,14.47
2018-08-31T02:00:25.666Z,15.90
2018-08-31T02:03:34.142Z,14.90
2018-08-31T02:06:07.410Z,13.40
2018-08-31T02:08:50.338Z,13.70
2018-08-31T02:11:20.263Z,15.87
2018-08-31T02:13:52.054Z,16.60
2018-08-31T02:16:22.890Z,14.90
2018-08-31T02:18:52.758Z,17.40
2018-08-31T02:21:22.562Z,15.73
2018-08-31T02:23:53.498Z,14.30
2018-08-31T02:26:24.334Z,15.37
2018-08-31T02:28:56.146Z,15.10
2018-08-31T02:31:31.434Z,15.43
2018-08-31T02:34:01.998Z,15.40
2018-08-31T02:36:31.474Z,15.97
2018-08-31T02:39:02.252Z,14.73
2018-08-31T02:41:33.756Z,14.20
2018-08-31T02:44:05.542Z,14.57
2018-08-31T02:46:37.362Z,15.07
2018-08-31T02:49:12.054Z,14.30
2018-08-31T02:51:47.466Z,13.20
2018-08-31T02:54:21.058Z,13.63
2018-08-31T02:56:57.014Z,16.47
2018-08-31T02:59:26.918Z,15.47
2018-08-31T03:02:01.407Z,13.37
2018-08-31T03:04:31.978Z,13.93
2018-08-31T03:07:03.706Z,14.70
2018-08-31T03:09:33.290Z,14.67
2018-08-31T03:12:02.822Z,14.57
2018-08-31T03:14:38.658Z,14.57
2018-08-31T03:17:08.507Z,14.20
2018-08-31T03:19:39.206Z,15.10
2018-08-31T03:22:09.914Z,16.50
2018-08-31T03:24:42.534Z,15.80
2018-08-31T03:27:14.374Z,16.07
2018-08-31T03:29:44.205Z,16.60
2018-08-31T03:32:30.001Z,17.13
2018-08-31T03:35:03.800Z,16.70
2018-08-31T03:37:33.601Z,16.77
2018-08-31T03:40:05.569Z,16.40
2018-08-31T03:42:36.205Z,15.90
2018-08-31T03:45:06.038Z,18.60
2018-08-31T03:51:05.961Z,17.70
2018-08-31T03:53:51.141Z,18.43
2018-08-31T03:56:43.665Z,16.90
2018-08-31T04:00:41.546Z,15.50
2018-08-31T04:06:03.085Z,17.37
2018-08-31T04:11:26.269Z,14.37
2018-08-31T04:17:16.421Z,16.87
2018-08-31T04:19:46.693Z,14.50
2018-08-31T04:22:20.369Z,15.00
2018-08-31T04:24:52.246Z,14.07
2018-08-31T04:27:22.853Z,16.20
2018-08-31T04:29:52.613Z,14.30
2018-08-31T04:32:22.489Z,16.20
2018-08-31T04:34:58.069Z,14.33
2018-08-31T04:37:27.934Z,14.90
2018-08-31T04:39:58.605Z,15.27
2018-08-31T04:42:30.326Z,14.80
2018-08-31T04:45:00.162Z,16.53
2018-08-31T04:47:29.770Z,16.83
2018-08-31T04:49:59.577Z,14.33
2018-08-31T04:52:30.126Z,15.10
2018-08-31T04:55:03.194Z,16.90
2018-08-31T04:57:33.078Z,12.80
2018-08-31T05:00:02.710Z,15.77
2018-08-31T05:02:37.689Z,14.97
2018-08-31T05:05:08.471Z,14.83
2018-08-31T05:07:38.277Z,14.87
2018-08-31T05:10:10.154Z,15.50
2018-08-31T05:12:40.733Z,16.63
2018-08-31T05:15:10.294Z,16.03
2018-08-31T05:17:43.326Z,16.60
2018-08-31T05:20:13.998Z,17.20
2018-08-31T05:22:44.781Z,17.30
2018-08-31T05:25:14.316Z,15.93
2018-08-31T05:27:45.094Z,17.63
2018-08-31T05:30:14.921Z,15.13
2018-08-31T05:32:44.837Z,15.97
2018-08-31T05:35:16.390Z,16.57
2018-08-31T05:37:47.422Z,15.67
2018-08-31T05:40:19.214Z,16.10
2018-08-31T05:42:57.245Z,14.13
2018-08-31T05:45:27.894Z,14.53
2018-08-31T05:47:58.498Z,13.50
2018-08-31T05:50:28.310Z,11.60
2018-08-31T05:52:58.953Z,10.73
2018-08-31T05:55:28.453Z,12.93
2018-08-31T05:58:07.274Z,10.67
2018-08-31T06:00:40.358Z,10.43
2018-08-31T06:03:10.098Z,10.13
2018-08-31T06:05:43.582Z,11.90
2018-08-31T06:08:14.066Z,10.87
2018-08-31T06:10:56.105Z,11.87
2018-08-31T06:13:25.918Z,11.07
2018-08-31T06:15:55.457Z,11.87
2018-08-31T06:18:27.205Z,11.97
2018-08-31T06:20:58.080Z,12.00
2018-08-31T06:23:29.817Z,10.97
2018-08-31T06:25:59.605Z,11.10
2018-08-31T06:28:30.433Z,13.20
2018-08-31T06:31:00.345Z,11.20
2018-08-31T06:33:31.993Z,12.07
2018-08-31T06:36:04.525Z,12.37
2018-08-31T06:38:35.225Z,12.40
2018-08-31T06:41:05.111Z,13.00
2018-08-31T06:43:46.937Z,13.87
2018-08-31T06:46:16.805Z,12.93
2018-08-31T06:48:52.141Z,13.33
2018-08-31T06:51:29.609Z,13.30
2018-08-31T06:54:00.341Z,12.80
2018-08-31T06:56:29.958Z,13.83
2018-08-31T06:59:05.465Z,11.57
2018-08-31T07:01:41.889Z,11.47
2018-08-31T07:04:12.726Z,11.93
2018-08-31T07:07:03.377Z,13.30
2018-08-31T07:09:59.293Z,12.30
2018-08-31T07:12:31.162Z,10.20
2018-08-31T07:15:27.589Z,12.07
2018-08-31T07:17:59.398Z,12.63
2018-08-31T07:20:30.277Z,10.40
2018-08-31T07:23:02.069Z,11.57
2018-08-31T07:25:35.589Z,10.80
2018-08-31T07:28:13.649Z,10.53
2018-08-31T07:30:45.501Z,10.23
2018-08-31T07:33:28.201Z,9.97
2018-08-31T07:36:02.285Z,10.30
2018-08-31T07:38:33.917Z,9.70
2018-08-31T07:41:13.209Z,9.63
2018-08-31T07:43:42.993Z,10.00
2018-08-31T07:46:19.853Z,10.33
2018-08-31T07:49:00.382Z,9.33
2018-08-31T07:51:30.033Z,9.10
2018-08-31T07:54:00.779Z,9.70
2018-08-31T07:56:30.350Z,10.10
2018-08-31T07:59:03.261Z,8.80
2018-08-31T08:01:34.826Z,9.10
2018-08-31T08:04:04.497Z,9.23
2018-08-31T08:06:59.698Z,8.17
2018-08-31T08:09:29.513Z,10.57
2018-08-31T08:12:22.541Z,8.80
2018-08-31T08:14:55.666Z,8.40
2018-08-31T08:17:29.038Z,8.40
2018-08-31T08:20:09.470Z,9.43
2018-08-31T08:22:39.263Z,8.20
2018-08-31T08:25:08.797Z,8.60
2018-08-31T08:27:38.505Z,8.80
2018-08-31T08:30:16.606Z,8.40
2018-08-31T08:32:46.370Z,8.47
2018-08-31T08:35:18.146Z,7.87
2018-08-31T08:37:48.945Z,9.00
2018-08-31T08:40:24.518Z,9.03
2018-08-31T08:42:54.303Z,8.00
2018-08-31T08:45:29.943Z,8.77
2018-08-31T08:48:07.618Z,8.77
2018-08-31T08:50:38.329Z,9.13
2018-08-31T08:53:18.830Z,7.20
2018-08-31T08:55:56.814Z,9.20
2018-08-31T08:58:27.603Z,8.93
2018-08-31T09:00:58.129Z,8.50
2018-08-31T09:03:29.714Z,8.03
2018-08-31T09:06:05.028Z,8.80
2018-08-31T09:08:44.790Z,8.07
2018-08-31T09:11:21.961Z,8.50
2018-08-31T09:13:52.773Z,8.20
2018-08-31T09:16:24.341Z,9.23
2018-08-31T09:18:54.026Z,8.70
2018-08-31T09:21:28.785Z,8.30
2018-08-31T09:24:04.402Z,7.17
2018-08-31T09:26:44.977Z,7.77
2018-08-31T09:29:19.678Z,8.43
2018-08-31T09:31:50.473Z,7.27
2018-08-31T09:34:20.277Z,8.00
2018-08-31T09:36:51.061Z,8.67
2018-08-31T09:39:20.837Z,7.40
2018-08-31T09:41:52.665Z,7.80
2018-08-31T09:44:22.433Z,7.47
2018-08-31T09:46:52.281Z,9.90
2018-08-31T09:49:28.485Z,7.33
2018-08-31T09:52:07.929Z,8.17
2018-08-31T09:54:47.773Z,7.70
2018-08-31T09:57:18.341Z,7.73
2018-08-31T09:59:49.083Z,7.00
2018-08-31T10:02:24.951Z,8.23
2018-08-31T10:04:58.124Z,8.10
2018-08-31T10:07:28.908Z,8.10
2018-08-31T10:09:59.657Z,7.77
2018-08-31T10:12:29.217Z,8.13
2018-08-31T10:15:02.489Z,7.13
2018-08-31T10:17:33.273Z,8.27
2018-08-31T10:20:03.049Z,8.63
2018-08-31T10:22:37.392Z,7.57
2018-08-31T10:25:25.744Z,8.07
2018-08-31T10:28:14.644Z,7.50
2018-08-31T10:30:52.349Z,8.93
2018-08-31T10:33:23.094Z,7.33
2018-08-31T10:35:57.392Z,7.70
2018-08-31T10:38:28.132Z,7.30
2018-08-31T10:41:01.928Z,7.53
2018-08-31T10:46:33.691Z,8.27
2018-08-31T10:49:03.439Z,8.13
2018-08-31T10:51:38.736Z,7.60
2018-08-31T10:54:11.821Z,8.73
2018-08-31T10:56:41.588Z,7.77
2018-08-31T10:59:21.741Z,7.40
2018-08-31T11:02:04.070Z,8.47
2018-08-31T11:04:34.125Z,7.10
2018-08-31T11:07:03.652Z,7.93
2018-08-31T11:09:34.355Z,7.90
2018-08-31T11:12:04.113Z,8.73
2018-08-31T11:14:37.021Z,7.23
2018-08-31T11:17:10.361Z,8.10
2018-08-31T11:19:41.233Z,7.90
2018-08-31T11:22:16.733Z,7.77
2018-08-31T11:25:02.997Z,9.57
2018-08-31T11:27:37.138Z,7.10
2018-08-31T11:30:10.657Z,8.30
2018-08-31T11:32:52.445Z,8.60
2018-08-31T11:35:22.229Z,9.47
2018-08-31T11:37:54.017Z,7.90
2018-08-31T11:40:24.813Z,7.77
2018-08-31T11:42:55.471Z,7.83
2018-08-31T11:45:27.789Z,8.33
2018-08-31T11:47:57.597Z,8.37
2018-08-31T11:50:28.465Z,7.60
2018-08-31T11:53:02.948Z,8.27
2018-08-31T11:55:39.133Z,8.80
2018-08-31T11:58:18.345Z,9.60
2018-08-31T12:00:50.120Z,7.80
2018-08-31T12:03:19.689Z,8.67
2018-08-31T12:05:49.477Z,7.60
2018-08-31T12:08:20.037Z,7.90
2018-08-31T12:10:49.785Z,6.93
2018-08-31T12:13:21.329Z,9.40
2018-08-31T12:15:51.173Z,8.43
2018-08-31T12:18:23.069Z,8.60
2018-08-31T12:20:53.670Z,8.97
2018-08-31T12:23:23.341Z,7.73
2018-08-31T12:25:52.964Z,8.90
2018-08-31T12:28:22.765Z,8.87
2018-08-31T12:30:53.365Z,8.10
2018-08-31T12:33:27.785Z,7.80
2018-08-31T12:36:00.923Z,8.23
2018-08-31T12:38:40.549Z,7.97
2018-08-31T12:41:12.336Z,9.13
2018-08-31T12:43:42.949Z,9.13
2018-08-31T12:46:12.725Z,8.53
2018-08-31T12:48:54.020Z,9.80
2018-08-31T12:51:27.589Z,9.67
2018-08-31T12:54:01.073Z,9.53
2018-08-31T12:56:35.029Z,9.47
2018-08-31T12:59:05.665Z,8.80
2018-08-31T13:01:36.200Z,10.03
2018-08-31T13:04:07.317Z,9.60
2018-08-31T13:06:40.545Z,9.20
2018-08-31T13:09:26.720Z,9.37
2018-08-31T13:12:00.308Z,11.00
2018-08-31T13:14:32.085Z,9.90
2018-08-31T13:17:03.757Z,9.53
2018-08-31T13:19:38.265Z,9.03
2018-08-31T13:22:08.193Z,8.77
2018-08-31T13:24:40.013Z,9.27
2018-08-31T13:27:19.750Z,9.57
2018-08-31T13:29:50.577Z,8.07
2018-08-31T13:32:23.645Z,8.00
2018-08-31T13:34:54.513Z,8.27
2018-08-31T13:37:24.342Z,7.70
2018-08-31T13:39:57.525Z,8.40
2018-08-31T13:42:27.125Z,7.80
2018-08-31T13:44:57.585Z,8.50
2018-08-31T13:47:27.057Z,8.83
2018-08-31T13:49:56.845Z,8.30
2018-08-31T13:52:26.720Z,8.67
2018-08-31T13:54:56.589Z,10.07
2018-08-31T13:57:27.441Z,9.23
2018-08-31T13:59:57.333Z,9.60
2018-08-31T14:02:31.045Z,9.10
2018-08-31T14:05:00.832Z,11.63
2018-08-31T14:07:30.685Z,10.40
2018-08-31T14:10:00.265Z,9.53
2018-08-31T14:12:29.769Z,10.63
2018-08-31T14:14:59.476Z,10.40
2018-08-31T14:17:36.226Z,10.73
2018-08-31T14:20:16.525Z,10.30
2018-08-31T14:22:46.296Z,11.03
2018-08-31T14:25:18.068Z,11.53
2018-08-31T14:27:47.917Z,10.77
2018-08-31T14:30:19.733Z,12.17
2018-08-31T14:32:55.121Z,12.50
2018-08-31T14:35:26.729Z,13.60
2018-08-31T14:38:05.868Z,12.63
2018-08-31T14:40:41.313Z,11.83
2018-08-31T14:43:24.930Z,13.33
2018-08-31T14:45:55.769Z,11.33
2018-08-31T14:48:34.926Z,12.10
2018-08-31T14:51:14.920Z,12.67
2018-08-31T14:53:48.361Z,11.30
2018-08-31T14:56:25.704Z,10.83
2018-08-31T14:59:19.526Z,10.73
2018-08-31T15:01:50.061Z,10.00
2018-08-31T15:04:19.942Z,10.37
2018-08-31T15:07:10.329Z,10.97
2018-08-31T15:09:39.901Z,11.30
2018-08-31T15:12:09.490Z,10.90
2018-08-31T15:14:45.801Z,8.77
2018-08-31T15:17:17.469Z,9.70
2018-08-31T15:19:47.034Z,10.80
2018-08-31T15:22:16.467Z,8.90
2018-08-31T15:24:45.913Z,9.70
2018-08-31T15:27:15.337Z,9.77
2018-08-31T15:29:44.876Z,10.50
2018-08-31T15:32:14.380Z,8.80
2018-08-31T15:34:45.049Z,9.37
2018-08-31T15:37:14.608Z,8.83
2018-08-31T15:39:45.053Z,9.70
2018-08-31T15:42:14.554Z,10.57
2018-08-31T15:44:44.972Z,9.47
2018-08-31T15:47:14.504Z,10.73
2018-08-31T15:49:47.330Z,9.77
2018-08-31T15:52:17.004Z,9.80
2018-08-31T15:54:46.493Z,11.00
2018-08-31T15:57:15.925Z,9.73
2018-08-31T15:59:47.457Z,10.87
2018-08-31T16:02:16.951Z,9.90
2018-08-31T16:04:47.477Z,9.37
2018-08-31T16:07:16.968Z,9.10
2018-08-31T16:09:46.416Z,10.70
2018-08-31T16:12:15.848Z,9.20
2018-08-31T16:14:45.388Z,10.27
2018-08-31T16:17:19.556Z,10.30
2018-08-31T16:19:49.121Z,8.67
2018-08-31T16:22:24.908Z,9.97
2018-08-31T16:24:56.569Z,9.73
2018-08-31T16:27:26.089Z,10.07
2018-08-31T16:29:55.613Z,9.93
2018-08-31T16:32:26.077Z,9.20
2018-08-31T16:34:55.557Z,10.60
2018-08-31T16:37:25.236Z,9.47
2018-08-31T16:39:56.825Z,9.30
2018-08-31T16:42:30.180Z,10.37
2018-08-31T16:45:00.633Z,9.43
2018-08-31T16:47:30.339Z,8.90
2018-08-31T16:50:00.856Z,9.07
2018-08-31T16:52:33.596Z,10.17
2018-08-31T16:57:43.477Z,9.20
2018-08-31T17:00:12.930Z,8.63
2018-08-31T17:02:43.444Z,9.07
2018-08-31T17:05:12.884Z,10.50
2018-08-31T17:07:47.114Z,9.57
2018-08-31T17:10:16.685Z,9.17
2018-08-31T17:12:47.137Z,9.80
2018-08-31T17:15:16.669Z,10.33
2018-08-31T17:17:48.461Z,9.63
2018-08-31T17:20:17.967Z,11.17
2018-08-31T17:22:49.477Z,10.97
2018-08-31T17:25:21.004Z,11.00
2018-08-31T17:27:56.917Z,11.97
2018-08-31T17:30:30.128Z,10.67
2018-08-31T17:33:07.189Z,11.73
2018-08-31T17:35:43.148Z,11.30
2018-08-31T17:38:12.844Z,11.97
2018-08-31T17:40:44.593Z,12.57
2018-08-31T17:43:14.545Z,11.17
2018-08-31T17:45:45.152Z,12.57
2018-08-31T17:48:14.764Z,11.53
2018-08-31T17:50:44.320Z,11.50
2018-08-31T17:53:15.904Z,11.80
2018-08-31T17:55:47.440Z,12.40
2018-08-31T17:58:23.320Z,12.00
2018-08-31T18:00:52.852Z,13.63
2018-08-31T18:03:23.416Z,11.70
2018-08-31T18:05:53.244Z,11.80
2018-08-31T18:08:24.888Z,12.53
2018-08-31T18:10:56.656Z,13.23
2018-08-31T18:13:26.236Z,11.53
2018-08-31T18:15:56.911Z,12.30
2018-08-31T18:21:04.424Z,13.27
2018-08-31T18:25:59.805Z,13.30
2018-08-31T18:28:33.919Z,11.73
2018-08-31T18:31:03.499Z,12.13
2018-08-31T18:33:33.043Z,12.20
2018-08-31T18:36:02.568Z,12.17
2018-08-31T18:38:40.088Z,12.60
2018-08-31T18:41:09.892Z,13.53
2018-08-31T18:43:41.496Z,12.63
2018-08-31T18:46:14.114Z,12.20
2018-08-31T18:48:44.628Z,12.10
2018-08-31T18:51:24.428Z,12.80
2018-08-31T18:53:53.913Z,11.73
2018-08-31T18:56:24.400Z,12.10
2018-08-31T18:58:55.836Z,11.63
2018-08-31T19:01:26.332Z,11.20
2018-08-31T19:03:57.912Z,11.80
2018-08-31T19:06:28.436Z,13.13
2018-08-31T19:08:57.929Z,12.50
2018-08-31T19:11:28.436Z,13.67
2018-08-31T19:13:57.989Z,12.03
2018-08-31T19:16:27.684Z,12.03
2018-08-31T19:18:58.117Z,11.90
2018-08-31T19:21:27.721Z,11.70
2018-08-31T19:23:58.488Z,10.83
2018-08-31T19:26:32.758Z,11.83
2018-08-31T19:29:03.321Z,12.07
2018-08-31T19:31:32.826Z,10.23
2018-08-31T19:34:03.372Z,12.00
2018-08-31T19:36:40.504Z,10.57
2018-08-31T19:39:12.064Z,11.30
2018-08-31T19:41:46.529Z,10.80
2018-08-31T19:44:17.221Z,10.60
2018-08-31T19:46:46.779Z,10.27
2018-08-31T19:49:19.303Z,10.20
2018-08-31T19:51:50.854Z,10.63
2018-08-31T19:54:23.872Z,9.90
2018-08-31T19:56:54.357Z,9.27
2018-08-31T19:59:23.836Z,8.13
2018-08-31T20:01:57.852Z,8.87
2018-08-31T20:04:28.525Z,7.77
2018-08-31T20:07:02.944Z,7.30
2018-08-31T20:09:32.533Z,7.57
2018-08-31T20:12:03.014Z,7.93
2018-08-31T20:14:37.978Z,7.90
2018-08-31T20:17:12.028Z,8.30
2018-08-31T20:19:46.917Z,7.63
2018-08-31T20:22:17.405Z,7.10
2018-08-31T20:24:46.976Z,8.40
2018-08-31T20:27:18.568Z,8.43
2018-08-31T20:29:49.168Z,7.13
2018-08-31T20:32:22.076Z,6.80
2018-08-31T20:34:55.780Z,7.00
2018-08-31T20:37:25.368Z,7.90
2018-08-31T20:39:58.480Z,7.30
2018-08-31T20:42:29.076Z,7.00
2018-08-31T20:45:02.143Z,7.57
2018-08-31T20:47:33.656Z,7.00
2018-08-31T20:50:03.443Z,6.90
2018-08-31T20:52:33.268Z,8.03
2018-08-31T20:55:04.216Z,7.40
2018-08-31T20:57:34.872Z,7.30
2018-08-31T21:00:04.440Z,7.93
2018-08-31T21:02:44.424Z,6.90
2018-08-31T21:05:14.019Z,7.40
2018-08-31T21:07:45.694Z,7.50
2018-08-31T21:10:23.383Z,7.60
2018-08-31T21:12:53.176Z,6.40
2018-08-31T21:15:22.700Z,6.77
2018-08-31T21:17:53.285Z,6.97
2018-08-31T21:20:22.764Z,7.10
2018-08-31T21:22:52.260Z,6.40
2018-08-31T21:25:22.773Z,6.40
2018-08-31T21:27:52.244Z,6.60
2018-08-31T21:30:21.765Z,6.87
2018-08-31T21:32:51.243Z,8.20
2018-08-31T21:35:21.751Z,7.40
2018-08-31T21:37:52.294Z,6.83
2018-08-31T21:40:21.732Z,7.30
2018-08-31T21:42:51.443Z,7.23
2018-08-31T21:45:21.067Z,7.27
2018-08-31T21:47:50.824Z,8.80
2018-08-31T21:50:20.488Z,7.30
2018-08-31T21:52:54.927Z,7.50
2018-08-31T21:55:32.279Z,8.07
2018-08-31T21:58:05.515Z,6.47
2018-08-31T22:00:41.755Z,8.30
2018-08-31T22:03:12.767Z,7.90
2018-08-31T22:06:01.279Z,7.90
2018-08-31T22:08:32.787Z,8.33
2018-08-31T22:11:03.556Z,7.40
2018-08-31T22:13:51.707Z,7.63
2018-08-31T22:16:23.324Z,8.17
2018-08-31T22:18:53.067Z,9.20
2018-08-31T22:21:23.699Z,8.40
2018-08-31T22:23:59.271Z,7.50
2018-08-31T22:26:30.896Z,9.23
2018-08-31T22:29:05.472Z,7.50
2018-08-31T22:31:37.091Z,7.80
2018-08-31T22:34:10.147Z,8.70
2018-08-31T22:36:42.911Z,8.37
2018-08-31T22:39:12.383Z,8.00
2018-08-31T22:41:41.907Z,7.87
2018-08-31T22:44:12.494Z,8.37
2018-08-31T22:46:42.004Z,8.27
2018-08-31T22:49:15.859Z,7.13
2018-08-31T22:51:47.467Z,8.23
2018-08-31T22:54:18.951Z,6.33
2018-08-31T22:56:54.431Z,7.27
2018-08-31T22:59:23.981Z,7.57
2018-08-31T23:01:58.047Z,7.53
2018-08-31T23:04:30.867Z,7.57
2018-08-31T23:07:02.387Z,6.50
2018-08-31T23:09:32.778Z,7.40
2018-08-31T23:12:08.811Z,7.30
2018-08-31T23:14:46.499Z,7.97
2018-08-31T23:17:21.431Z,6.90
2018-08-31T23:19:51.000Z,6.87
2018-08-31T23:22:21.544Z,6.30
2018-08-31T23:24:56.567Z,6.50
2018-08-31T23:27:27.567Z,7.23
2018-08-31T23:29:59.135Z,8.00
2018-08-31T23:32:29.835Z,6.70
2018-08-31T23:34:59.424Z,7.43
2018-08-31T23:37:39.764Z,7.00
2018-08-31T23:40:09.191Z,7.70
2018-08-31T23:42:38.648Z,7.03
2018-08-31T23:45:08.140Z,5.90
2018-08-31T23:47:37.591Z,7.47
2018-08-31T23:50:08.172Z,6.90
2018-08-31T23:52:38.619Z,7.53
2018-08-31T23:55:08.095Z,7.60
2018-08-31T23:57:38.763Z,7.43
